createdAt,value
2022-07-27T00:00:39.367Z,12.66
2022-07-27T00:03:42.164Z,12.63
2022-07-27T00:06:44.856Z,12.60
2022-07-27T00:09:48.842Z,12.56
2022-07-27T00:12:51.359Z,12.54
2022-07-27T00:15:54.112Z,12.55
2022-07-27T00:18:56.620Z,12.52
2022-07-27T00:21:59.906Z,12.46
2022-07-27T00:25:03.865Z,12.35
2022-07-27T00:28:06.802Z,12.20
2022-07-27T00:31:09.386Z,12.05
2022-07-27T00:34:12.000Z,12.06
2022-07-27T00:37:14.573Z,12.03
2022-07-27T00:40:18.514Z,12.03
2022-07-27T00:43:21.027Z,12.03
2022-07-27T00:46:24.797Z,12.03
2022-07-27T00:49:27.887Z,12.02
2022-07-27T00:52:31.339Z,12.01
2022-07-27T00:55:35.545Z,12.03
2022-07-27T00:58:39.110Z,12.03
2022-07-27T01:01:42.232Z,12.03
2022-07-27T01:04:47.167Z,11.92
2022-07-27T01:07:50.274Z,11.75
2022-07-27T01:10:56.665Z,11.63
2022-07-27T01:13:59.204Z,11.61
2022-07-27T01:17:01.733Z,11.55
2022-07-27T01:20:05.351Z,11.50
2022-07-27T01:23:09.422Z,11.55
2022-07-27T01:26:11.966Z,11.55
2022-07-27T01:29:14.979Z,11.34
2022-07-27T01:32:17.744Z,11.11
2022-07-27T01:35:20.449Z,10.88
2022-07-27T01:38:24.692Z,10.81
2022-07-27T01:41:27.251Z,10.79
2022-07-27T01:44:29.806Z,10.76
2022-07-27T01:47:32.339Z,10.88
2022-07-27T01:50:34.993Z,11.05
2022-07-27T01:53:38.922Z,11.18
2022-07-27T01:56:42.322Z,11.15
2022-07-27T01:59:44.851Z,11.15
2022-07-27T02:02:47.378Z,11.06
2022-07-27T02:05:49.997Z,11.21
2022-07-27T02:08:53.884Z,11.27
2022-07-27T02:12:14.306Z,11.19
2022-07-27T02:15:20.234Z,11.14
2022-07-27T02:18:33.526Z,11.11
2022-07-27T02:21:39.070Z,11.06
2022-07-27T02:24:42.949Z,10.91
2022-07-27T02:27:46.739Z,10.93
2022-07-27T02:30:49.413Z,10.98
2022-07-27T02:33:51.930Z,10.95
2022-07-27T02:36:55.120Z,10.83
2022-07-27T02:39:59.026Z,10.74
2022-07-27T02:43:02.149Z,10.72
2022-07-27T02:46:04.880Z,10.78
2022-07-27T02:49:07.688Z,10.83
2022-07-27T02:52:10.344Z,10.83
2022-07-27T02:55:14.242Z,10.75
2022-07-27T02:58:16.777Z,10.72
2022-07-27T03:01:19.403Z,10.70
2022-07-27T03:04:22.024Z,10.71
2022-07-27T03:07:24.589Z,10.84
2022-07-27T03:10:28.456Z,10.88
2022-07-27T03:13:31.383Z,10.77
2022-07-27T03:16:33.929Z,10.78
2022-07-27T03:19:36.474Z,10.81
2022-07-27T03:22:39.030Z,10.93
2022-07-27T03:25:42.889Z,10.97
2022-07-27T03:28:45.773Z,11.10
2022-07-27T03:31:48.317Z,11.38
2022-07-27T03:34:51.171Z,11.49
2022-07-27T03:37:53.767Z,11.62
2022-07-27T03:40:57.615Z,11.68
2022-07-27T03:44:00.125Z,11.75
2022-07-27T03:47:02.697Z,11.77
2022-07-27T03:50:06.131Z,11.64
2022-07-27T03:53:09.189Z,11.62
2022-07-27T03:56:13.071Z,11.69
2022-07-27T03:59:16.225Z,11.70
2022-07-27T04:02:18.831Z,11.69
2022-07-27T04:05:21.884Z,11.69
2022-07-27T04:08:24.394Z,11.77
2022-07-27T04:11:29.724Z,11.83
2022-07-27T04:14:32.252Z,11.87
2022-07-27T04:17:54.876Z,11.89
2022-07-27T04:20:57.311Z,11.94
2022-07-27T04:23:59.835Z,12.01
2022-07-27T04:27:03.762Z,12.17
2022-07-27T04:30:09.652Z,12.27
2022-07-27T04:33:12.454Z,12.38
2022-07-27T04:36:14.969Z,12.57
2022-07-27T04:39:17.547Z,12.71
2022-07-27T04:42:21.415Z,12.89
2022-07-27T04:45:24.454Z,13.04
2022-07-27T04:48:26.981Z,13.22
2022-07-27T04:51:34.331Z,14.40
2022-07-27T04:54:37.283Z,15.28
2022-07-27T04:57:41.935Z,14.75
2022-07-27T05:00:44.703Z,14.68
2022-07-27T05:03:47.371Z,14.63
2022-07-27T05:06:49.982Z,14.58
2022-07-27T05:09:52.504Z,14.48
2022-07-27T05:12:57.033Z,14.69
2022-07-27T05:15:59.631Z,14.90
2022-07-27T05:19:02.208Z,15.63
2022-07-27T05:22:04.799Z,15.99
2022-07-27T05:25:08.074Z,15.85
2022-07-27T05:28:13.797Z,15.44
2022-07-27T05:31:16.358Z,15.20
2022-07-27T05:34:19.019Z,15.03
2022-07-27T05:37:21.539Z,15.13
2022-07-27T05:40:24.078Z,15.26
2022-07-27T05:43:28.401Z,15.29
2022-07-27T05:46:33.234Z,15.37
2022-07-27T05:49:35.813Z,15.40
2022-07-27T05:52:38.436Z,15.50
2022-07-27T05:55:58.958Z,15.79
2022-07-27T05:59:07.029Z,16.04
2022-07-27T06:02:10.078Z,16.20
2022-07-27T06:05:16.006Z,16.37
2022-07-27T06:08:21.343Z,16.57
2022-07-27T06:11:23.949Z,16.93
2022-07-27T06:14:27.849Z,17.03
2022-07-27T06:17:30.358Z,16.97
2022-07-27T06:20:33.763Z,17.21
2022-07-27T06:23:36.289Z,17.53
2022-07-27T06:26:38.840Z,17.67
2022-07-27T06:29:42.850Z,17.63
2022-07-27T06:32:45.731Z,17.97
2022-07-27T06:35:49.391Z,18.06
2022-07-27T06:38:51.928Z,17.87
2022-07-27T06:41:58.115Z,17.65
2022-07-27T06:45:02.299Z,17.29
2022-07-27T06:48:05.450Z,17.12
2022-07-27T06:51:08.817Z,17.12
2022-07-27T06:54:11.490Z,17.12
2022-07-27T06:57:14.063Z,17.08
2022-07-27T07:00:18.450Z,17.16
2022-07-27T07:03:21.033Z,17.41
2022-07-27T07:06:23.598Z,17.92
2022-07-27T07:09:26.907Z,18.86
2022-07-27T07:12:29.476Z,19.00
2022-07-27T07:15:33.416Z,19.02
2022-07-27T07:18:35.940Z,19.60
2022-07-27T07:21:38.461Z,19.50
2022-07-27T07:24:40.987Z,19.01
2022-07-27T07:27:43.539Z,18.48
2022-07-27T07:30:47.662Z,17.66
2022-07-27T07:33:50.203Z,18.10
2022-07-27T07:36:52.748Z,18.78
2022-07-27T07:39:55.404Z,18.56
2022-07-27T07:43:00.044Z,18.84
2022-07-27T07:46:04.125Z,19.22
2022-07-27T07:49:07.175Z,18.96
2022-07-27T07:52:09.744Z,18.88
2022-07-27T07:55:12.522Z,19.25
2022-07-27T07:58:15.773Z,19.59
2022-07-27T08:01:19.673Z,19.64
2022-07-27T08:04:22.296Z,20.25
2022-07-27T08:07:24.812Z,21.07
2022-07-27T08:10:28.102Z,21.35
2022-07-27T08:13:30.615Z,21.18
2022-07-27T08:16:34.529Z,20.18
2022-07-27T08:19:40.232Z,19.51
2022-07-27T08:22:43.563Z,18.76
2022-07-27T08:25:46.925Z,18.34
2022-07-27T08:28:49.502Z,18.36
2022-07-27T08:31:54.613Z,18.35
2022-07-27T08:34:58.742Z,18.13
2022-07-27T08:38:02.848Z,18.13
2022-07-27T08:41:07.631Z,18.88
2022-07-27T08:44:14.598Z,18.55
2022-07-27T08:47:19.870Z,18.15
2022-07-27T08:50:27.488Z,17.74
2022-07-27T08:53:34.096Z,18.74
2022-07-27T08:56:54.906Z,19.51
2022-07-27T08:59:57.609Z,18.63
2022-07-27T09:03:01.801Z,18.82
2022-07-27T09:06:05.635Z,18.70
2022-07-27T09:09:08.862Z,18.59
2022-07-27T09:12:11.788Z,18.63
2022-07-27T09:15:16.904Z,18.70
2022-07-27T09:18:22.996Z,18.95
2022-07-27T09:21:26.047Z,19.11
2022-07-27T09:24:46.252Z,18.96
2022-07-27T09:27:54.062Z,19.91
2022-07-27T09:30:56.644Z,20.38
2022-07-27T09:34:02.395Z,19.95
2022-07-27T09:37:06.499Z,18.99
2022-07-27T09:40:13.847Z,18.40
2022-07-27T09:44:12.107Z,18.33
2022-07-27T09:46:41.866Z,19.30
2022-07-27T09:49:45.818Z,19.34
2022-07-27T09:52:48.890Z,19.15
2022-07-27T09:56:01.270Z,19.46
2022-07-27T09:59:04.707Z,19.59
2022-07-27T10:02:07.777Z,19.17
2022-07-27T10:05:14.018Z,18.56
2022-07-27T10:08:17.022Z,18.56
2022-07-27T10:11:21.731Z,18.79
2022-07-27T10:14:25.719Z,18.33
2022-07-27T10:17:28.790Z,17.91
2022-07-27T10:20:34.309Z,17.88
2022-07-27T10:23:38.206Z,18.08
2022-07-27T10:26:42.295Z,18.17
2022-07-27T10:29:44.815Z,18.22
2022-07-27T10:32:47.352Z,18.80
2022-07-27T10:35:52.053Z,19.62
2022-07-27T10:38:56.591Z,19.60
2022-07-27T10:42:27.314Z,19.61
2022-07-27T10:45:50.294Z,20.24
2022-07-27T10:49:18.088Z,20.81
2022-07-27T10:52:41.725Z,20.59
2022-07-27T10:55:49.296Z,20.05
2022-07-27T10:58:52.829Z,20.20
2022-07-27T11:01:59.161Z,21.90
2022-07-27T11:05:05.205Z,22.91
2022-07-27T11:08:36.564Z,22.64
2022-07-27T11:11:34.481Z,21.92
2022-07-27T11:14:46.255Z,20.85
2022-07-27T11:17:58.422Z,19.53
2022-07-27T11:21:14.854Z,19.47
2022-07-27T11:24:19.255Z,19.98
2022-07-27T11:27:25.180Z,19.51
2022-07-27T11:30:29.844Z,19.86
2022-07-27T11:33:32.475Z,20.28
2022-07-27T11:36:43.594Z,20.20
2022-07-27T11:40:27.832Z,21.41
2022-07-27T11:43:11.954Z,21.01
2022-07-27T11:46:20.594Z,21.04
2022-07-27T11:49:26.771Z,20.86
2022-07-27T11:52:29.389Z,22.86
2022-07-27T11:55:33.351Z,22.20
2022-07-27T11:58:57.124Z,23.01
2022-07-27T12:02:04.926Z,22.88
2022-07-27T12:05:11.514Z,21.62
2022-07-27T12:08:14.325Z,21.79
2022-07-27T12:11:34.012Z,21.74
2022-07-27T12:14:39.402Z,20.94
2022-07-27T12:17:43.633Z,22.31
2022-07-27T12:20:48.889Z,23.24
2022-07-27T12:23:55.697Z,22.47
2022-07-27T12:27:15.434Z,21.49
2022-07-27T12:30:20.197Z,21.51
2022-07-27T12:33:29.411Z,21.75
2022-07-27T12:36:33.048Z,21.50
2022-07-27T12:39:36.433Z,21.04
2022-07-27T12:42:41.044Z,20.94
2022-07-27T12:45:45.906Z,21.48
2022-07-27T12:48:49.089Z,21.06
2022-07-27T12:51:52.975Z,21.50
2022-07-27T12:54:56.294Z,21.30
2022-07-27T12:58:03.169Z,20.41
2022-07-27T13:01:07.255Z,20.60
2022-07-27T13:04:10.316Z,20.82
2022-07-27T13:07:12.863Z,20.88
2022-07-27T13:10:18.745Z,20.48
2022-07-27T13:13:24.730Z,21.03
2022-07-27T13:16:27.562Z,22.05
2022-07-27T13:19:30.212Z,22.25
2022-07-27T13:22:32.931Z,21.77
2022-07-27T13:25:41.190Z,21.11
2022-07-27T13:28:48.208Z,21.13
2022-07-27T13:35:00.028Z,21.41
2022-07-27T13:38:02.540Z,21.42
2022-07-27T13:41:05.090Z,22.31
2022-07-27T13:44:23.927Z,23.85
2022-07-27T13:47:32.773Z,23.88
2022-07-27T13:50:35.362Z,23.84
2022-07-27T13:53:52.197Z,22.44
2022-07-27T13:56:59.371Z,21.80
2022-07-27T14:00:05.328Z,21.77
2022-07-27T14:03:11.257Z,22.65
2022-07-27T14:06:15.053Z,21.91
2022-07-27T14:09:21.418Z,21.72
2022-07-27T14:12:27.842Z,21.92
2022-07-27T14:15:32.902Z,21.96
2022-07-27T14:18:36.170Z,22.00
2022-07-27T14:21:39.336Z,22.21
2022-07-27T14:24:45.338Z,22.95
2022-07-27T14:27:48.034Z,22.70
2022-07-27T14:30:51.940Z,22.46
2022-07-27T14:33:54.445Z,21.70
2022-07-27T14:36:56.961Z,21.56
2022-07-27T14:39:59.668Z,22.16
2022-07-27T14:43:02.221Z,22.44
2022-07-27T14:46:06.084Z,22.15
2022-07-27T14:49:09.414Z,22.20
2022-07-27T14:52:14.228Z,22.13
2022-07-27T14:55:16.920Z,22.87
2022-07-27T14:58:19.465Z,23.19
2022-07-27T15:01:23.370Z,22.66
2022-07-27T15:04:26.243Z,22.42
2022-07-27T15:07:29.016Z,22.31
2022-07-27T15:10:31.679Z,23.32
2022-07-27T15:13:35.359Z,23.82
2022-07-27T15:16:39.343Z,23.41
2022-07-27T15:19:41.863Z,22.94
2022-07-27T15:22:44.426Z,22.15
2022-07-27T15:25:48.134Z,21.64
2022-07-27T15:28:51.074Z,21.68
2022-07-27T15:31:54.967Z,21.71
2022-07-27T15:34:57.521Z,21.72
2022-07-27T15:38:00.028Z,21.03
2022-07-27T15:41:02.596Z,20.67
2022-07-27T15:44:05.746Z,20.97
2022-07-27T15:47:10.005Z,21.98
2022-07-27T15:50:12.966Z,22.26
2022-07-27T15:53:15.773Z,22.90
2022-07-27T15:56:18.299Z,22.76
2022-07-27T15:59:20.826Z,22.54
2022-07-27T16:02:26.538Z,22.72
2022-07-27T16:05:29.218Z,22.57
2022-07-27T16:08:31.894Z,22.65
2022-07-27T16:11:34.409Z,23.41
2022-07-27T16:14:36.901Z,23.41
2022-07-27T16:17:40.764Z,23.13
2022-07-27T16:20:43.650Z,22.74
2022-07-27T16:23:46.416Z,22.25
2022-07-27T16:26:48.998Z,20.99
2022-07-27T16:29:51.601Z,20.69
2022-07-27T16:32:56.122Z,21.10
2022-07-27T16:35:58.899Z,21.16
2022-07-27T16:39:01.404Z,20.96
2022-07-27T16:42:04.158Z,20.68
2022-07-27T16:45:09.106Z,20.26
2022-07-27T16:48:13.334Z,20.02
2022-07-27T16:51:16.938Z,20.08
2022-07-27T16:54:19.470Z,21.03
2022-07-27T16:57:23.741Z,21.75
2022-07-27T17:00:26.311Z,22.33
2022-07-27T17:03:30.165Z,22.51
2022-07-27T17:06:35.128Z,22.26
2022-07-27T17:09:37.628Z,21.42
2022-07-27T17:12:40.178Z,21.54
2022-07-27T17:15:45.151Z,21.21
2022-07-27T17:18:49.001Z,21.27
2022-07-27T17:21:51.523Z,20.70
2022-07-27T17:24:54.072Z,20.62
2022-07-27T17:27:56.620Z,20.36
2022-07-27T17:30:59.167Z,20.31
2022-07-27T17:34:03.030Z,20.37
2022-07-27T17:37:05.701Z,20.46
2022-07-27T17:40:09.159Z,20.59
2022-07-27T17:43:13.002Z,20.57
2022-07-27T17:46:15.701Z,20.39
2022-07-27T17:49:19.767Z,20.18
2022-07-27T17:52:22.892Z,20.18
2022-07-27T17:55:25.647Z,20.07
2022-07-27T17:58:30.385Z,20.06
2022-07-27T18:01:48.120Z,20.12
2022-07-27T18:04:52.573Z,20.01
2022-07-27T18:07:55.105Z,20.01
2022-07-27T18:10:57.667Z,19.87
2022-07-27T18:14:00.192Z,19.83
2022-07-27T18:17:02.698Z,19.94
2022-07-27T18:20:08.509Z,19.79
2022-07-27T18:23:11.036Z,19.65
2022-07-27T18:26:13.823Z,19.40
2022-07-27T18:29:16.772Z,19.08
2022-07-27T18:32:19.421Z,18.77
2022-07-27T18:35:23.673Z,18.50
2022-07-27T18:38:26.321Z,18.31
2022-07-27T18:41:28.856Z,18.04
2022-07-27T18:44:36.827Z,17.84
2022-07-27T18:47:41.219Z,17.77
2022-07-27T18:50:53.882Z,17.68
2022-07-27T18:53:56.392Z,17.38
2022-07-27T18:56:59.915Z,17.08
2022-07-27T19:00:02.481Z,16.77
2022-07-27T19:03:05.254Z,16.52
2022-07-27T19:06:11.396Z,16.20
2022-07-27T19:09:19.259Z,16.05
2022-07-27T19:12:21.820Z,15.90
2022-07-27T19:15:24.776Z,15.79
2022-07-27T19:18:27.440Z,15.79
2022-07-27T19:21:32.269Z,15.70
2022-07-27T19:24:34.891Z,15.64
2022-07-27T19:27:38.287Z,15.52
2022-07-27T19:30:41.126Z,15.44
2022-07-27T19:33:44.058Z,15.40
2022-07-27T19:36:47.914Z,15.34
2022-07-27T19:39:57.305Z,15.21
2022-07-27T19:43:05.524Z,15.05
2022-07-27T19:46:08.361Z,14.97
2022-07-27T19:49:11.432Z,14.81
2022-07-27T19:52:17.275Z,14.62
2022-07-27T19:55:20.067Z,14.44
2022-07-27T19:58:23.326Z,14.26
2022-07-27T20:01:26.389Z,14.18
2022-07-27T20:04:29.186Z,14.11
2022-07-27T20:07:33.266Z,14.07
2022-07-27T20:10:35.839Z,14.01
2022-07-27T20:13:38.415Z,13.90
2022-07-27T20:16:41.936Z,13.79
2022-07-27T20:19:45.221Z,13.77
2022-07-27T20:22:49.355Z,13.70
2022-07-27T20:25:52.109Z,13.62
2022-07-27T20:28:54.631Z,13.51
2022-07-27T20:31:57.423Z,13.39
2022-07-27T20:35:01.200Z,13.34
2022-07-27T20:38:05.059Z,13.33
2022-07-27T20:41:07.593Z,13.16
2022-07-27T20:44:10.122Z,13.02
2022-07-27T20:47:14.586Z,13.01
2022-07-27T20:50:17.110Z,13.06
2022-07-27T20:53:21.107Z,13.00
2022-07-27T20:56:23.701Z,12.84
2022-07-27T20:59:26.302Z,12.70
2022-07-27T21:02:28.948Z,12.55
2022-07-27T21:05:31.755Z,12.42
2022-07-27T21:08:35.583Z,12.33
2022-07-27T21:11:38.139Z,12.23
2022-07-27T21:14:40.677Z,12.09
2022-07-27T21:17:43.763Z,11.97
2022-07-27T21:20:46.360Z,11.88
2022-07-27T21:24:07.831Z,11.75
2022-07-27T21:27:11.443Z,11.59
2022-07-27T21:30:14.785Z,11.48
2022-07-27T21:33:17.362Z,11.42
2022-07-27T21:36:19.943Z,11.42
2022-07-27T21:39:24.978Z,11.41
2022-07-27T21:42:27.771Z,11.49
2022-07-27T21:45:30.405Z,11.54
2022-07-27T21:48:33.253Z,11.53
2022-07-27T21:51:35.800Z,11.36
2022-07-27T21:54:39.855Z,11.28
2022-07-27T21:57:42.380Z,11.16
2022-07-27T22:00:45.010Z,11.11
2022-07-27T22:03:47.707Z,11.13
2022-07-27T22:06:50.357Z,11.03
2022-07-27T22:09:54.280Z,10.96
2022-07-27T22:12:57.418Z,10.89
2022-07-27T22:16:00.265Z,10.79
2022-07-27T22:19:02.872Z,10.64
2022-07-27T22:22:05.503Z,10.55
2022-07-27T22:25:10.682Z,10.53
2022-07-27T22:28:13.366Z,10.54
2022-07-27T22:31:22.680Z,10.54
2022-07-27T22:34:25.982Z,10.45
2022-07-27T22:37:28.552Z,10.37
2022-07-27T22:40:32.389Z,10.48
2022-07-27T22:43:34.992Z,10.58
2022-07-27T22:46:38.775Z,10.59
2022-07-27T22:49:41.406Z,10.53
2022-07-27T22:52:43.958Z,10.39
2022-07-27T22:55:47.887Z,10.13
2022-07-27T22:58:50.616Z,9.95
2022-07-27T23:01:53.898Z,9.85
2022-07-27T23:04:57.162Z,9.82
2022-07-27T23:07:59.769Z,9.81
2022-07-27T23:11:03.623Z,9.82
2022-07-27T23:14:07.453Z,9.81
2022-07-27T23:17:10.079Z,9.81
2022-07-27T23:20:13.090Z,9.72
2022-07-27T23:23:16.769Z,9.69
2022-07-27T23:26:23.121Z,9.53
2022-07-27T23:29:28.509Z,9.54
2022-07-27T23:32:31.105Z,9.56
2022-07-27T23:35:34.002Z,9.58
2022-07-27T23:38:36.981Z,9.55
2022-07-27T23:41:40.914Z,9.49
2022-07-27T23:44:43.493Z,9.41
2022-07-27T23:47:46.171Z,9.41
2022-07-27T23:50:49.880Z,9.30
2022-07-27T23:53:52.734Z,9.22
2022-07-27T23:56:58.396Z,9.20
